Time;durP1;ratioP1;P1;durP2;ratioP2;P2;SDS_P1;SDS_P2;PMS_P1;PMS_P2;Temp;Humidity;BMP_temperature;BMP_pressure;BME280_temperature;BME280_humidity;BME280_pressure;Samples;Min_cycle;Max_cycle;Signal;HPM_P1;HPM_P2
2022/07/05 00:01:05;;;;;;;1.20;0.20;;;;;;;18.59;56.55;101859.56;7387352;19;20007;-78
2022/07/05 00:03:32;;;;;;;1.65;0.28;;;;;;;18.57;56.75;101850.91;7385545;19;20485;-78
2022/07/05 00:06:00;;;;;;;0.60;0.20;;;;;;;18.55;57.12;101852.91;7384410;19;20002;-79
2022/07/05 00:08:27;;;;;;;0.60;0.20;;;;;;;18.50;56.92;101858.75;7383948;19;20530;-79
2022/07/05 00:10:54;;;;;;;1.27;0.10;;;;;;;18.48;56.86;101858.09;7385907;19;20360;-79
2022/07/05 00:13:21;;;;;;;0.95;0.15;;;;;;;18.46;57.08;101856.63;7384973;19;20010;-79
2022/07/05 00:15:48;;;;;;;1.92;0.22;;;;;;;18.42;57.51;101856.16;7386449;19;20098;-79
2022/07/05 00:18:15;;;;;;;1.67;0.10;;;;;;;18.39;57.90;101861.81;7384387;19;20023;-79
2022/07/05 00:20:42;;;;;;;1.40;0.10;;;;;;;18.36;57.50;101857.69;7381759;19;20508;-78
2022/07/05 00:23:09;;;;;;;1.42;0.13;;;;;;;18.32;58.00;101853.72;7381466;19;20026;-78
2022/07/05 00:25:36;;;;;;;0.65;0.20;;;;;;;18.29;58.18;101859.41;7382927;19;20006;-78
2022/07/05 00:28:04;;;;;;;1.17;0.20;;;;;;;18.27;58.03;101860.59;7384288;19;20026;-78
2022/07/05 00:30:31;;;;;;;0.73;0.20;;;;;;;18.25;58.24;101860.75;7384988;19;20028;-77
2022/07/05 00:32:58;;;;;;;0.30;0.10;;;;;;;18.21;58.15;101863.97;7380937;19;20531;-78
2022/07/05 00:35:25;;;;;;;1.77;0.20;;;;;;;18.20;58.39;101867.63;7382897;19;20335;-78
2022/07/05 00:37:51;;;;;;;1.85;0.10;;;;;;;18.18;59.00;101859.00;7383087;19;20040;-78
2022/07/05 00:40:18;;;;;;;1.48;0.20;;;;;;;18.19;58.78;101879.28;7381495;19;20015;-78
2022/07/05 00:42:45;;;;;;;0.75;0.10;;;;;;;18.18;58.86;101867.81;7385137;19;20021;-78
2022/07/05 00:45:12;;;;;;;0.93;0.13;;;;;;;18.17;59.19;101874.16;7383898;19;20018;-79
2022/07/05 00:47:39;;;;;;;0.82;0.25;;;;;;;18.15;58.97;101878.81;7385039;19;20022;-78
2022/07/05 00:50:07;;;;;;;1.60;0.20;;;;;;;18.11;58.93;101866.88;7383177;19;20617;-78
2022/07/05 00:52:34;;;;;;;0.70;0.20;;;;;;;18.09;58.97;101870.69;7382457;19;20015;-78
2022/07/05 00:55:01;;;;;;;1.70;0.20;;;;;;;18.10;59.22;101881.19;7385007;19;20090;-79
2022/07/05 00:57:28;;;;;;;0.30;0.10;;;;;;;18.07;59.26;101870.88;7386233;19;20018;-78
2022/07/05 00:59:56;;;;;;;2.88;0.63;;;;;;;18.04;59.18;101868.56;7382827;19;20018;-78
2022/07/05 01:02:23;;;;;;;0.20;0.10;;;;;;;18.01;59.71;101868.09;7384236;19;20011;-79
2022/07/05 01:04:51;;;;;;;1.33;0.20;;;;;;;17.99;59.58;101868.25;7385431;19;20301;-79
2022/07/05 01:07:20;;;;;;;1.42;0.20;;;;;;;17.95;59.76;101872.28;7382387;19;20359;-79
2022/07/05 01:09:47;;;;;;;1.63;0.20;;;;;;;17.95;59.97;101873.13;7382906;19;20585;-79
2022/07/05 01:12:15;;;;;;;0.60;0.20;;;;;;;17.93;59.65;101875.13;7383001;19;20015;-79
2022/07/05 01:14:44;;;;;;;0.77;0.10;;;;;;;17.87;59.60;101867.00;7384129;19;20037;-79
2022/07/05 01:17:12;;;;;;;3.60;0.20;;;;;;;17.85;60.11;101864.53;7384734;19;20042;-79
2022/07/05 01:19:39;;;;;;;1.02;0.20;;;;;;;17.82;60.07;101866.72;7383258;19;20116;-78
2022/07/05 01:22:15;;;;;;;1.27;0.10;;;;;;;17.77;60.50;101866.41;7389513;19;20030;-79
2022/07/05 01:24:43;;;;;;;0.60;0.10;;;;;;;17.75;60.85;101855.09;7385326;19;20575;-80
2022/07/05 01:27:11;;;;;;;0.17;0.00;;;;;;;17.75;60.47;101861.25;7388369;19;20539;-78
2022/07/05 01:29:38;;;;;;;1.35;0.20;;;;;;;17.76;60.69;101859.41;7390425;19;20086;-78
2022/07/05 01:32:05;;;;;;;0.82;0.10;;;;;;;17.75;60.72;101860.41;7389490;19;20010;-78
2022/07/05 01:34:36;;;;;;;1.48;0.20;;;;;;;17.74;60.98;101859.56;7389744;19;20446;-79
2022/07/05 01:37:04;;;;;;;0.50;0.20;;;;;;;17.73;61.06;101868.56;7389660;19;20015;-78
2022/07/05 01:39:31;;;;;;;1.65;0.20;;;;;;;17.71;60.94;101867.94;7390491;19;20042;-79
2022/07/05 01:41:58;;;;;;;4.88;0.20;;;;;;;17.67;60.95;101865.78;7391600;19;20031;-78
2022/07/05 01:44:25;;;;;;;1.00;0.20;;;;;;;17.63;61.16;101870.59;7390085;19;20087;-79
2022/07/05 01:46:58;;;;;;;1.25;0.28;;;;;;;17.62;61.30;101870.81;7389079;19;20471;-78
2022/07/05 01:49:27;;;;;;;2.28;0.20;;;;;;;17.61;61.33;101869.97;7388128;19;20018;-80
2022/07/05 01:51:59;;;;;;;0.40;0.10;;;;;;;17.60;61.31;101870.13;7390216;19;20110;-79
2022/07/05 01:54:26;;;;;;;1.25;0.20;;;;;;;17.60;61.31;101873.63;7390774;19;20017;-79
2022/07/05 01:56:53;;;;;;;2.22;0.22;;;;;;;17.60;61.46;101876.28;7392127;19;20018;-78
2022/07/05 01:59:19;;;;;;;1.05;0.20;;;;;;;17.57;61.65;101873.94;7390336;19;20475;-80
2022/07/05 02:01:46;;;;;;;2.47;0.20;;;;;;;17.56;61.43;101876.78;7385985;19;20035;-79
2022/07/05 02:04:13;;;;;;;1.10;0.20;;;;;;;17.51;61.38;101875.47;7385809;19;20029;-80
2022/07/05 02:06:40;;;;;;;1.40;0.30;;;;;;;17.48;61.65;101873.13;7386723;19;20135;-78
2022/07/05 02:09:08;;;;;;;0.90;0.20;;;;;;;17.46;61.98;101871.66;7388829;19;20031;-78
2022/07/05 02:11:38;;;;;;;1.92;0.20;;;;;;;17.40;61.79;101872.34;7389591;19;20360;-79
2022/07/05 02:14:05;;;;;;;0.50;0.17;;;;;;;17.40;61.54;101872.34;7387400;19;20093;-78
2022/07/05 02:16:36;;;;;;;1.17;0.30;;;;;;;17.37;61.84;101876.16;7387452;19;20026;-79
2022/07/05 02:19:04;;;;;;;2.05;0.30;;;;;;;17.35;62.17;101875.50;7389761;19;20131;-78
2022/07/05 02:21:36;;;;;;;2.65;0.20;;;;;;;17.34;62.18;101868.53;7389582;19;20040;-79
2022/07/05 02:24:04;;;;;;;2.17;0.22;;;;;;;17.33;62.33;101866.88;7388532;19;20018;-78
2022/07/05 02:26:38;;;;;;;2.05;0.20;;;;;;;17.31;62.72;101874.22;7383881;19;20079;-80
2022/07/05 02:29:09;;;;;;;1.65;0.28;;;;;;;17.31;62.58;101876.88;7389440;19;20015;-79
2022/07/05 02:31:42;;;;;;;2.15;0.20;;;;;;;17.32;62.18;101877.69;7386903;19;20014;-79
2022/07/05 02:34:09;;;;;;;1.27;0.28;;;;;;;17.28;62.18;101871.88;7385259;19;20728;-79
2022/07/05 02:36:36;;;;;;;0.93;0.20;;;;;;;17.28;62.41;101876.34;7387494;19;20036;-79
2022/07/05 02:39:03;;;;;;;3.30;0.30;;;;;;;17.24;62.12;101881.19;7388479;19;20411;-79
2022/07/05 02:41:32;;;;;;;1.83;0.20;;;;;;;17.22;62.44;101874.41;7388375;19;20015;-78
2022/07/05 02:43:59;;;;;;;1.83;0.20;;;;;;;17.17;62.64;101874.88;7389959;19;20082;-78
2022/07/05 02:46:25;;;;;;;2.45;0.20;;;;;;;17.16;62.85;101869.75;7387820;19;20538;-78
2022/07/05 02:48:52;;;;;;;0.93;0.10;;;;;;;17.14;62.83;101872.56;7387911;19;20037;-79
2022/07/05 02:51:24;;;;;;;0.57;0.20;;;;;;;17.14;62.77;101866.41;7384924;19;20069;-80
2022/07/05 02:53:51;;;;;;;0.63;0.15;;;;;;;17.11;62.84;101867.59;7386308;19;20018;-78
2022/07/05 02:56:18;;;;;;;1.17;0.20;;;;;;;17.11;62.74;101870.25;7386181;19;20018;-78
2022/07/05 02:58:45;;;;;;;2.35;0.20;;;;;;;17.11;62.59;101864.94;7388019;19;20803;-79
2022/07/05 03:01:12;;;;;;;0.70;0.20;;;;;;;17.04;62.71;101863.94;7386943;19;20014;-78
2022/07/05 03:03:39;;;;;;;1.38;0.10;;;;;;;16.97;63.14;101868.28;7387935;19;20022;-78
2022/07/05 03:06:06;;;;;;;0.95;0.20;;;;;;;16.94;63.38;101873.94;7385092;19;20371;-78
2022/07/05 03:08:33;;;;;;;1.35;0.20;;;;;;;16.91;63.33;101877.78;7384155;19;20018;-78
2022/07/05 03:11:03;;;;;;;2.28;0.20;;;;;;;16.88;63.37;101874.59;7385827;19;20123;-80
2022/07/05 03:13:30;;;;;;;0.55;0.10;;;;;;;16.87;63.47;101880.91;7385918;19;20007;-79
2022/07/05 03:15:56;;;;;;;1.67;0.20;;;;;;;16.89;63.75;101877.09;7386734;19;20392;-77
2022/07/05 03:18:23;;;;;;;0.40;0.20;;;;;;;16.89;63.51;101882.44;7386291;19;20036;-78
2022/07/05 03:20:52;;;;;;;3.22;0.30;;;;;;;16.84;63.60;101884.75;7382886;19;20558;-78
2022/07/05 03:23:18;;;;;;;2.38;0.28;;;;;;;16.83;63.58;101882.25;7387954;19;20074;-78
2022/07/05 03:25:45;;;;;;;0.70;0.40;;;;;;;16.80;63.64;101886.09;7383938;19;20021;-79
2022/07/05 03:28:12;;;;;;;1.55;0.30;;;;;;;16.74;63.62;101878.78;7379590;19;20015;-77
2022/07/05 03:30:39;;;;;;;2.95;0.30;;;;;;;16.73;63.94;101885.09;7386725;19;20050;-78
2022/07/05 03:33:06;;;;;;;1.30;0.20;;;;;;;16.67;64.06;101886.59;7386675;19;20043;-77
2022/07/05 03:35:33;;;;;;;2.05;0.30;;;;;;;16.66;64.16;101879.59;7381556;19;20017;-79
2022/07/05 03:38:00;;;;;;;0.75;0.20;;;;;;;16.66;64.05;101887.56;7387133;19;20038;-78
2022/07/05 03:40:27;;;;;;;1.40;0.17;;;;;;;16.66;64.48;101892.88;7386478;19;20094;-78
2022/07/05 03:42:54;;;;;;;0.90;0.17;;;;;;;16.65;64.30;101891.25;7386917;19;20041;-79
2022/07/05 03:45:21;;;;;;;2.20;0.30;;;;;;;16.61;64.02;101891.72;7386691;19;20699;-79
2022/07/05 03:47:48;;;;;;;0.95;0.10;;;;;;;16.63;64.50;101887.91;7385610;19;20050;-78
2022/07/05 03:50:15;;;;;;;2.35;0.20;;;;;;;16.66;64.05;101884.09;7384507;19;20392;-78
2022/07/05 03:52:42;;;;;;;1.45;0.20;;;;;;;16.67;64.06;101888.41;7384002;19;20010;-77
2022/07/05 03:55:09;;;;;;;1.15;0.20;;;;;;;16.66;64.02;101890.22;7384878;19;20021;-79
2022/07/05 03:57:36;;;;;;;2.65;0.30;;;;;;;16.63;64.12;101887.91;7386720;19;20018;-78
2022/07/05 04:00:04;;;;;;;2.85;0.38;;;;;;;16.63;64.21;101892.41;7385098;19;20504;-78
2022/07/05 04:02:30;;;;;;;1.10;0.20;;;;;;;16.61;64.40;101887.25;7387824;19;20495;-78
2022/07/05 04:04:57;;;;;;;1.15;0.20;;;;;;;16.63;64.08;101895.06;7384783;19;20011;-80
2022/07/05 04:07:24;;;;;;;1.52;0.20;;;;;;;16.60;63.90;101893.56;7385816;19;20077;-78
2022/07/05 04:09:51;;;;;;;0.98;0.20;;;;;;;16.63;63.99;101893.22;7386256;19;20024;-78
2022/07/05 04:12:18;;;;;;;1.15;0.15;;;;;;;16.60;63.89;101895.41;7387144;19;20349;-78
2022/07/05 04:14:45;;;;;;;0.80;0.20;;;;;;;16.56;64.06;101899.34;7385791;19;20014;-79
2022/07/05 04:17:12;;;;;;;0.80;0.30;;;;;;;16.55;64.09;101900.34;7385036;19;20014;-78
2022/07/05 04:19:39;;;;;;;2.17;0.47;;;;;;;16.55;64.48;101898.53;7384733;19;20070;-77
2022/07/05 04:22:06;;;;;;;2.25;0.40;;;;;;;16.58;64.17;101897.34;7380202;19;20014;-78
2022/07/05 04:25:16;;;;;;;1.67;0.20;;;;;;;16.60;63.70;101898.06;7386542;19;20006;-78
2022/07/05 04:27:20;;;;;;;3.60;0.30;;;;;;;16.61;63.83;101902.34;7383239;19;20040;-78
2022/07/05 04:29:47;;;;;;;4.15;0.95;;;;;;;16.58;63.81;101902.66;7383856;19;20011;-76
2022/07/05 04:32:17;;;;;;;1.83;0.15;;;;;;;16.57;63.87;101901.00;7383002;19;20090;-79
2022/07/05 04:34:44;;;;;;;0.98;0.30;;;;;;;16.55;66.06;101900.34;7380069;19;20140;-78
2022/07/05 04:37:12;;;;;;;3.65;0.32;;;;;;;16.53;64.33;101905.81;7383838;19;20427;-78
2022/07/05 04:39:38;;;;;;;0.60;0.25;;;;;;;16.54;64.49;101910.16;7385125;19;20025;-79
2022/07/05 04:42:05;;;;;;;1.25;0.30;;;;;;;16.52;64.29;101912.13;7385955;19;20018;-78
2022/07/05 04:44:32;;;;;;;1.27;0.30;;;;;;;16.53;64.23;101916.44;7387136;19;20035;-79
2022/07/05 04:47:06;;;;;;;2.00;0.30;;;;;;;16.51;64.72;101913.13;7382897;19;20447;-79
2022/07/05 04:49:33;;;;;;;1.42;0.40;;;;;;;16.50;64.92;101915.97;7384505;19;20089;-79
2022/07/05 04:52:00;;;;;;;1.58;0.30;;;;;;;16.53;64.72;101920.94;7381163;19;20018;-79
2022/07/05 04:54:27;;;;;;;1.48;0.30;;;;;;;16.53;64.83;101919.09;7383425;19;20020;-78
2022/07/05 04:56:54;;;;;;;1.25;0.30;;;;;;;16.55;64.61;101919.78;7390259;19;20015;-79
2022/07/05 04:59:21;;;;;;;3.13;0.30;;;;;;;16.54;64.49;101922.59;7391559;19;20018;-78
2022/07/05 05:01:52;;;;;;;0.63;0.20;;;;;;;16.52;64.47;101922.75;7391969;19;20559;-78
2022/07/05 05:04:19;;;;;;;1.17;0.22;;;;;;;16.50;64.51;101926.59;7391160;19;20052;-77
2022/07/05 05:06:46;;;;;;;3.00;0.38;;;;;;;16.46;64.75;101919.91;7390479;19;20363;-78
2022/07/05 05:09:13;;;;;;;1.83;0.30;;;;;;;16.45;65.08;101918.28;7389962;19;20090;-80
2022/07/05 05:11:40;;;;;;;3.45;0.30;;;;;;;16.45;65.10;101926.25;7390655;19;20033;-80
2022/07/05 05:14:07;;;;;;;2.15;0.50;;;;;;;16.45;64.83;101931.56;7391170;19;20712;-78
2022/07/05 05:16:34;;;;;;;1.00;0.30;;;;;;;16.45;64.74;101937.72;7392614;19;20481;-77
2022/07/05 05:19:01;;;;;;;2.75;0.60;;;;;;;16.46;65.02;101939.34;7392243;19;20026;-79
2022/07/05 05:21:28;;;;;;;2.65;0.28;;;;;;;16.46;65.10;101934.03;7387932;19;20043;-77
2022/07/05 05:23:55;;;;;;;3.90;0.40;;;;;;;16.46;65.21;101930.53;7391566;19;20475;-79
2022/07/05 05:26:21;;;;;;;2.80;0.40;;;;;;;16.47;65.46;101929.56;7390087;19;20018;-79
2022/07/05 05:28:49;;;;;;;3.45;0.55;;;;;;;16.47;65.03;101941.00;7385776;19;20021;-79
2022/07/05 05:31:17;;;;;;;2.03;0.30;;;;;;;16.46;64.96;101936.69;7386541;19;20315;-79
2022/07/05 05:33:45;;;;;;;1.88;0.40;;;;;;;16.46;65.16;101939.34;7390102;19;20041;-79
2022/07/05 05:36:12;;;;;;;2.15;0.30;;;;;;;16.44;65.23;101953.81;7388653;19;20094;-79
2022/07/05 05:38:39;;;;;;;1.80;0.28;;;;;;;16.43;65.83;101958.28;7389834;19;20078;-79
2022/07/05 05:41:06;;;;;;;2.03;0.30;;;;;;;16.43;65.95;101955.63;7389776;19;20026;-80
2022/07/05 05:43:33;;;;;;;4.05;0.50;;;;;;;16.45;65.81;101952.81;7389747;19;20015;-79
2022/07/05 05:46:03;;;;;;;1.35;0.40;;;;;;;16.47;65.78;101958.78;7390902;19;20082;-79
2022/07/05 05:48:30;;;;;;;2.35;0.52;;;;;;;16.47;65.65;101962.28;7390937;19;20015;-80
2022/07/05 05:50:57;;;;;;;1.38;0.30;;;;;;;16.50;65.47;101961.97;7389212;19;20022;-78
2022/07/05 05:53:24;;;;;;;3.55;0.40;;;;;;;16.50;65.73;101963.78;7388283;19;20014;-78
2022/07/05 05:55:55;;;;;;;4.72;0.50;;;;;;;16.55;65.81;101961.47;7388741;19;20017;-80
2022/07/05 05:58:23;;;;;;;1.98;0.30;;;;;;;16.57;64.77;101975.41;7391429;19;20009;-79
2022/07/05 06:00:52;;;;;;;1.98;0.30;;;;;;;16.58;64.60;101974.41;7388529;19;20463;-78
2022/07/05 06:03:20;;;;;;;1.92;0.40;;;;;;;16.60;64.93;101969.81;7389992;19;20039;-79
2022/07/05 06:05:47;;;;;;;3.05;0.25;;;;;;;16.66;64.72;101975.28;7388137;19;20010;-78
2022/07/05 06:08:14;;;;;;;2.53;0.30;;;;;;;16.71;64.07;101981.97;7387605;19;20086;-80
2022/07/05 06:10:42;;;;;;;2.25;0.50;;;;;;;16.76;63.92;101983.09;7390035;19;20010;-78
2022/07/05 06:13:11;;;;;;;1.00;0.20;;;;;;;16.82;64.55;101981.63;7387979;19;20032;-80
2022/07/05 06:15:37;;;;;;;4.22;0.30;;;;;;;16.86;63.84;101983.81;7390702;19;20014;-78
2022/07/05 06:18:06;;;;;;;4.40;0.40;;;;;;;16.93;63.99;101992.75;7390323;19;20006;-78
2022/07/05 06:20:34;;;;;;;3.05;0.40;;;;;;;16.96;64.18;101988.97;7385489;19;20022;-79
2022/07/05 06:23:03;;;;;;;1.58;0.20;;;;;;;16.98;63.99;101984.28;7387239;19;20018;-79
2022/07/05 06:25:31;;;;;;;1.25;0.30;;;;;;;17.01;63.41;101994.63;7388908;19;20015;-78
2022/07/05 06:28:01;;;;;;;1.08;0.20;;;;;;;17.06;62.99;101997.59;7388590;19;20010;-79
2022/07/05 06:30:30;;;;;;;3.50;0.30;;;;;;;17.10;63.37;101998.94;7384521;19;20014;-77
2022/07/05 06:32:57;;;;;;;1.70;0.40;;;;;;;17.17;62.39;101999.09;7389607;19;20042;-78
2022/07/05 06:35:25;;;;;;;2.70;0.40;;;;;;;17.34;61.13;101990.94;7385574;19;20042;-79
2022/07/05 06:37:57;;;;;;;1.10;0.28;;;;;;;17.45;61.01;101990.59;7388372;19;20022;-78
2022/07/05 06:40:28;;;;;;;1.52;0.55;;;;;;;17.46;61.51;101991.41;7388924;19;20082;-80
2022/07/05 06:42:58;;;;;;;0.55;0.20;;;;;;;17.44;61.62;101993.41;7388780;19;20010;-78
2022/07/05 06:45:25;;;;;;;2.55;0.20;;;;;;;17.47;62.59;101995.75;7387071;19;20019;-79
2022/07/05 06:48:04;;;;;;;3.03;0.28;;;;;;;17.52;61.47;102002.19;7387951;19;20106;-78
2022/07/05 06:50:35;;;;;;;2.22;0.20;;;;;;;17.54;60.76;102010.03;7386538;19;20018;-79
2022/07/05 06:53:06;;;;;;;3.35;0.40;;;;;;;17.54;60.93;102008.19;7384594;19;20014;-77
2022/07/05 06:55:33;;;;;;;2.78;0.20;;;;;;;17.56;61.05;102012.53;7385273;19;20015;-78
2022/07/05 06:58:11;;;;;;;2.97;0.20;;;;;;;17.57;60.82;102004.38;7389415;19;20014;-77
2022/07/05 07:00:40;;;;;;;0.88;0.20;;;;;;;17.61;60.08;102020.88;7387718;19;20038;-78
2022/07/05 07:03:27;;;;;;;1.98;0.20;;;;;;;17.64;60.26;102012.53;7389853;19;20014;-79
2022/07/05 07:06:15;;;;;;;1.08;0.20;;;;;;;17.67;60.25;102013.03;7386428;19;20114;-78
2022/07/05 07:11:28;;;;;;;2.70;0.20;;;;;;;17.72;60.21;102025.84;7388020;19;20034;-77
2022/07/05 07:13:55;;;;;;;0.90;0.20;;;;;;;17.76;59.70;102021.84;7389099;19;20495;-78
2022/07/05 07:16:22;;;;;;;1.67;0.20;;;;;;;17.78;59.81;102017.16;7385931;19;20511;-78
2022/07/05 07:18:49;;;;;;;2.75;0.10;;;;;;;17.80;59.71;102029.31;7385571;19;20015;-77
2022/07/05 07:21:37;;;;;;;3.53;0.25;;;;;;;17.84;59.80;102033.28;7384440;19;20014;-78
2022/07/05 07:24:04;;;;;;;2.00;0.22;;;;;;;17.87;59.71;102021.47;7386790;19;20027;-77
2022/07/05 07:27:02;;;;;;;4.40;0.30;;;;;;;17.90;59.49;102021.94;7386890;19;20017;-78
2022/07/05 07:29:26;;;;;;;1.95;0.20;;;;;;;17.96;58.99;102028.44;7385836;19;20789;-77
2022/07/05 07:31:54;;;;;;;2.92;0.20;;;;;;;18.01;59.04;102030.56;7383918;19;20115;-78
2022/07/05 07:34:21;;;;;;;1.40;0.10;;;;;;;18.04;58.76;102024.91;7385916;19;20416;-77
2022/07/05 07:36:57;;;;;;;0.88;0.20;;;;;;;18.10;57.79;102026.88;7387054;19;20078;-79
2022/07/05 07:39:26;;;;;;;2.50;0.30;;;;;;;18.12;57.63;102027.53;7385401;19;20040;-77
2022/07/05 07:41:52;;;;;;;1.55;0.22;;;;;;;18.21;57.38;102038.00;7385663;19;20010;-78
2022/07/05 07:44:19;;;;;;;0.77;0.20;;;;;;;18.47;57.51;102034.22;7386932;19;20024;-78
2022/07/05 07:46:54;;;;;;;0.52;0.20;;;;;;;18.88;59.19;102035.66;7386714;19;20638;-78
2022/07/05 07:49:21;;;;;;;0.50;0.10;;;;;;;19.48;53.25;102042.88;7386718;19;20011;-76
2022/07/05 07:51:48;;;;;;;1.40;0.03;;;;;;;19.72;53.31;102034.63;7382969;19;20534;-77
2022/07/05 07:54:15;;;;;;;2.70;0.20;;;;;;;19.74;52.32;102040.63;7385438;19;20543;-79
2022/07/05 07:56:42;;;;;;;0.70;0.10;;;;;;;19.70;53.15;102033.16;7386862;19;20078;-78
2022/07/05 07:59:12;;;;;;;2.33;0.20;;;;;;;19.62;53.80;102034.88;7386776;19;20074;-78
2022/07/05 08:01:39;;;;;;;1.48;0.20;;;;;;;19.55;53.48;102041.16;7384036;19;20345;-77
2022/07/05 08:04:12;;;;;;;1.80;0.20;;;;;;;19.46;53.97;102034.22;7385553;19;20022;-78
2022/07/05 08:06:40;;;;;;;2.08;0.30;;;;;;;19.40;52.52;102033.06;7383134;19;20043;-77
2022/07/05 08:09:09;;;;;;;2.00;0.20;;;;;;;19.37;52.99;102035.28;7383019;19;20022;-77
2022/07/05 08:11:43;;;;;;;2.28;0.10;;;;;;;19.32;52.56;102026.97;7385783;19;20035;-77
2022/07/05 08:14:17;;;;;;;1.15;0.20;;;;;;;19.25;53.93;102037.53;7384700;19;20148;-78
2022/07/05 08:16:53;;;;;;;0.93;0.15;;;;;;;19.18;53.31;102029.44;7381757;19;20010;-77
2022/07/05 08:22:19;;;;;;;0.50;0.10;;;;;;;19.18;53.98;102015.25;7380409;19;20488;-77
2022/07/05 08:24:46;;;;;;;2.10;0.10;;;;;;;19.21;53.95;102026.38;7385079;19;20018;-76
2022/07/05 08:27:15;;;;;;;1.15;0.20;;;;;;;19.25;52.82;102026.06;7385005;19;20010;-78
2022/07/05 08:29:43;;;;;;;2.85;0.20;;;;;;;19.27;52.48;102027.50;7384094;19;20011;-77
2022/07/05 08:32:10;;;;;;;2.08;0.20;;;;;;;19.31;52.78;102015.47;7379381;19;20033;-77
2022/07/05 08:34:37;;;;;;;2.03;0.20;;;;;;;19.35;53.15;102027.44;7380926;19;20359;-79
2022/07/05 08:37:10;;;;;;;1.00;0.13;;;;;;;19.37;52.96;102028.09;7384944;19;20022;-75
2022/07/05 08:39:41;;;;;;;2.00;0.20;;;;;;;19.35;52.76;102023.97;7387444;19;20336;-79
2022/07/05 08:42:12;;;;;;;2.53;0.57;;;;;;;19.36;53.00;102021.09;7384999;19;20038;-78
2022/07/05 08:44:41;;;;;;;0.45;0.20;;;;;;;19.40;52.36;102025.03;7384422;19;20025;-77
2022/07/05 08:47:11;;;;;;;4.95;0.40;;;;;;;19.43;53.23;102023.88;7384735;19;20416;-77
2022/07/05 08:49:42;;;;;;;2.00;0.20;;;;;;;19.46;51.86;102019.03;7385895;19;20539;-77
2022/07/05 08:52:12;;;;;;;1.58;0.30;;;;;;;19.48;52.46;102029.53;7381588;19;20482;-78
2022/07/05 08:54:39;;;;;;;1.13;0.10;;;;;;;19.47;52.51;102022.53;7385982;19;20037;-78
2022/07/05 08:57:07;;;;;;;1.10;0.22;;;;;;;19.48;53.25;102027.69;7384791;19;20014;-77
2022/07/05 08:59:44;;;;;;;1.98;0.30;;;;;;;19.53;53.83;102027.97;7384051;19;20464;-78
2022/07/05 09:02:15;;;;;;;2.30;0.30;;;;;;;19.58;53.79;102038.94;7384196;19;20046;-77
2022/07/05 09:04:45;;;;;;;1.63;0.30;;;;;;;19.58;53.13;102030.94;7381700;19;20026;-77
2022/07/05 09:07:16;;;;;;;1.67;0.30;;;;;;;19.62;53.09;102031.38;7383388;19;20447;-77
2022/07/05 09:09:47;;;;;;;3.08;0.40;;;;;;;19.67;52.78;102030.84;7384824;19;20459;-78
2022/07/05 09:12:15;;;;;;;2.85;0.20;;;;;;;19.72;54.75;102023.94;7386098;19;20321;-79
2022/07/05 09:14:50;;;;;;;1.75;0.40;;;;;;;19.74;53.71;102027.25;7384780;19;20022;-77
2022/07/05 09:17:17;;;;;;;2.42;0.20;;;;;;;19.76;53.29;102033.25;7382795;19;20018;-76
2022/07/05 09:20:03;;;;;;;1.88;0.20;;;;;;;19.78;54.60;102031.22;7381124;19;20109;-76
2022/07/05 09:22:48;;;;;;;1.70;0.28;;;;;;;19.77;53.97;102037.56;7380754;19;20014;-78
2022/07/05 09:25:21;;;;;;;3.17;0.30;;;;;;;19.75;53.91;102034.28;7383847;19;20046;-77
2022/07/05 09:27:50;;;;;;;2.42;0.20;;;;;;;19.77;54.38;102040.25;7384346;19;20022;-78
2022/07/05 09:30:44;;;;;;;0.85;0.20;;;;;;;19.82;52.51;102040.53;7381849;19;20019;-76
2022/07/05 09:33:15;;;;;;;2.60;0.20;;;;;;;19.91;51.67;102036.75;7375471;19;20792;-78
2022/07/05 09:35:51;;;;;;;1.13;0.20;;;;;;;20.01;51.75;102042.63;7376362;19;20018;-77
2022/07/05 09:38:27;;;;;;;2.30;0.15;;;;;;;20.16;50.99;102036.47;7381895;19;20356;-79
2022/07/05 09:40:56;;;;;;;0.38;0.10;;;;;;;20.25;50.99;102038.88;7380034;19;20524;-78
2022/07/05 09:43:29;;;;;;;2.38;0.10;;;;;;;20.34;48.67;102032.41;7392880;19;20018;-77
2022/07/05 09:45:59;;;;;;;1.67;0.20;;;;;;;20.42;49.97;102040.31;7389978;19;20361;-79
2022/07/05 09:48:28;;;;;;;0.98;0.10;;;;;;;20.48;50.04;102038.75;7386826;19;20022;-77
2022/07/05 09:51:16;;;;;;;1.30;0.20;;;;;;;20.61;50.58;102038.09;7390310;19;20021;-76
2022/07/05 09:54:03;;;;;;;1.00;0.20;;;;;;;20.67;49.12;102030.13;7390557;19;20078;-78
2022/07/05 09:56:58;;;;;;;1.02;0.20;;;;;;;20.74;50.43;102036.38;7382350;19;20016;-76
2022/07/05 09:59:30;;;;;;;2.50;0.30;;;;;;;20.68;49.92;102047.81;7384862;19;20022;-77
2022/07/05 10:01:57;;;;;;;1.10;0.10;;;;;;;20.62;50.54;102048.56;7388737;19;20019;-77
2022/07/05 10:04:24;;;;;;;1.35;0.20;;;;;;;20.62;50.31;102048.56;7389622;19;20114;-76
2022/07/05 10:07:00;;;;;;;2.45;0.25;;;;;;;20.63;51.06;102055.59;7387204;19;20018;-78
2022/07/05 10:09:34;;;;;;;3.30;0.30;;;;;;;20.57;51.41;102052.88;7388800;19;20362;-77
2022/07/05 10:12:01;;;;;;;3.33;0.20;;;;;;;20.52;52.13;102058.75;7394820;19;20006;-79
2022/07/05 10:14:29;;;;;;;8.35;0.40;;;;;;;20.44;52.93;102054.34;7388512;19;20015;-79
2022/07/05 10:17:06;;;;;;;1.67;0.35;;;;;;;20.44;53.05;102058.88;7390923;19;20027;-79
2022/07/05 10:19:38;;;;;;;2.85;0.20;;;;;;;20.44;52.68;102067.72;7387259;19;20422;-79
2022/07/05 10:22:09;;;;;;;1.23;0.20;;;;;;;20.46;52.33;102062.19;7388342;19;20010;-79
2022/07/05 10:25:35;;;;;;;3.60;0.38;;;;;;;20.44;52.21;102064.22;7392913;19;20922;-80
2022/07/05 10:28:08;;;;;;;1.67;0.10;;;;;;;20.44;51.95;102074.91;7391071;19;20033;-78
2022/07/05 10:30:50;;;;;;;1.65;0.25;;;;;;;20.43;52.38;102063.38;7386353;19;20049;-79
2022/07/05 10:33:25;;;;;;;0.88;0.17;;;;;;;20.54;51.75;102067.44;7391211;19;20015;-79
2022/07/05 10:36:01;;;;;;;3.75;0.38;;;;;;;20.63;51.93;102068.13;7376474;19;20021;-81
2022/07/05 10:38:56;;;;;;;1.17;0.17;;;;;;;20.67;51.15;102064.88;7395598;19;20588;-78
2022/07/05 10:41:26;;;;;;;1.98;0.13;;;;;;;20.80;51.42;102069.56;7387975;19;20014;-79
2022/07/05 10:43:56;;;;;;;4.22;0.10;;;;;;;20.81;49.50;102064.03;7394075;19;20487;-80
2022/07/05 10:46:38;;;;;;;0.40;0.10;;;;;;;20.83;49.82;102053.97;7390273;19;20014;-79
2022/07/05 10:49:20;;;;;;;2.40;0.20;;;;;;;20.89;50.13;102055.06;7390737;19;20015;-79
2022/07/05 10:51:52;;;;;;;3.08;0.20;;;;;;;20.95;50.42;102050.78;7389728;19;20270;-80
2022/07/05 10:54:32;;;;;;;3.15;0.40;;;;;;;21.01;49.69;102058.06;7385845;19;20385;-78
2022/07/05 10:57:23;;;;;;;1.27;0.28;;;;;;;21.00;48.69;102059.91;7387418;19;20070;-76
2022/07/05 11:00:09;;;;;;;3.40;0.20;;;;;;;20.95;48.83;102048.13;7388033;19;20011;-78
2022/07/05 11:02:39;;;;;;;3.42;0.20;;;;;;;20.99;48.19;102055.56;7387935;19;20701;-78
2022/07/05 11:05:07;;;;;;;1.88;0.20;;;;;;;21.01;47.82;102056.22;7385536;19;20018;-77
2022/07/05 11:08:03;;;;;;;1.65;0.10;;;;;;;21.06;48.68;102051.13;7384475;19;21819;-77
2022/07/05 11:11:10;;;;;;;3.90;0.20;;;;;;;21.09;48.92;102055.25;7386151;19;20011;-78
2022/07/05 11:13:39;;;;;;;5.47;0.55;;;;;;;21.07;49.02;102054.63;7388087;19;20299;-78
2022/07/05 11:16:26;;;;;;;2.60;0.20;;;;;;;21.08;49.42;102051.75;7384124;19;20519;-78
2022/07/05 11:19:05;;;;;;;1.05;0.22;;;;;;;21.09;49.52;102053.41;7383166;19;20098;-77
2022/07/05 11:21:34;;;;;;;1.95;0.30;;;;;;;21.13;49.00;102061.91;7385137;19;20269;-77
2022/07/05 11:24:21;;;;;;;0.98;0.13;;;;;;;21.20;49.02;102054.78;7385223;19;20021;-77
2022/07/05 11:27:01;;;;;;;1.92;0.20;;;;;;;21.18;49.06;102049.59;7382699;19;20282;-78
2022/07/05 11:29:50;;;;;;;2.15;0.30;;;;;;;21.12;49.12;102045.00;7385126;19;20015;-78
2022/07/05 11:32:18;;;;;;;2.80;0.20;;;;;;;21.10;50.30;102049.72;7386010;19;20024;-77
2022/07/05 11:34:48;;;;;;;2.22;0.20;;;;;;;21.13;49.84;102032.44;7380431;19;20027;-77
2022/07/05 11:37:21;;;;;;;4.70;0.55;;;;;;;21.17;50.04;102047.97;7384329;19;20010;-76
2022/07/05 11:40:05;;;;;;;1.33;0.20;;;;;;;21.25;49.56;102041.63;7382496;19;20020;-78
2022/07/05 11:42:42;;;;;;;4.63;0.30;;;;;;;21.32;49.78;102051.41;7384678;19;20424;-78
2022/07/05 11:45:09;;;;;;;2.53;0.20;;;;;;;21.41;48.77;102049.41;7385423;19;20022;-78